sensor_id;sensor_type;location;lat;lon;timestamp;pressure;altitude;pressure_sealevel;temperature;humidity
79645;BME280;69117;47.148;18.954;2023-10-09T00:01:38;101642.13;;;8.62;100.00
79645;BME280;69117;47.148;18.954;2023-10-09T00:04:41;101653.59;;;8.88;100.00
79645;BME280;69117;47.148;18.954;2023-10-09T00:07:44;101644.81;;;9.02;100.00
79645;BME280;69117;47.148;18.954;2023-10-09T00:10:48;101644.13;;;8.98;100.00
79645;BME280;69117;47.148;18.954;2023-10-09T00:13:58;101648.50;;;8.99;100.00
79645;BME280;69117;47.148;18.954;2023-10-09T00:17:02;101628.09;;;8.88;100.00
79645;BME280;69117;47.148;18.954;2023-10-09T00:20:13;101618.72;;;8.84;100.00
79645;BME280;69117;47.148;18.954;2023-10-09T00:23:32;101629.47;;;8.94;100.00
79645;BME280;69117;47.148;18.954;2023-10-09T00:26:35;101620.75;;;9.06;100.00
79645;BME280;69117;47.148;18.954;2023-10-09T00:29:44;101635.63;;;9.07;100.00
79645;BME280;69117;47.148;18.954;2023-10-09T00:32:47;101628.03;;;9.03;100.00
79645;BME280;69117;47.148;18.954;2023-10-09T00:36:09;101611.44;;;8.88;100.00
79645;BME280;69117;47.148;18.954;2023-10-09T00:39:11;101629.16;;;8.86;100.00
79645;BME280;69117;47.148;18.954;2023-10-09T00:42:19;101626.84;;;8.94;100.00
79645;BME280;69117;47.148;18.954;2023-10-09T00:45:31;101632.72;;;8.85;100.00
79645;BME280;69117;47.148;18.954;2023-10-09T00:48:35;101635.06;;;8.89;100.00
79645;BME280;69117;47.148;18.954;2023-10-09T00:51:47;101617.22;;;8.80;100.00
79645;BME280;69117;47.148;18.954;2023-10-09T00:55:01;101625.78;;;8.84;100.00
79645;BME280;69117;47.148;18.954;2023-10-09T00:58:11;101624.06;;;8.83;100.00
79645;BME280;69117;47.148;18.954;2023-10-09T01:01:14;101621.88;;;8.89;100.00
79645;BME280;69117;47.148;18.954;2023-10-09T01:04:17;101627.69;;;8.94;100.00
79645;BME280;69117;47.148;18.954;2023-10-09T01:07:20;101624.75;;;8.99;100.00
79645;BME280;69117;47.148;18.954;2023-10-09T01:10:27;101619.03;;;8.92;100.00
79645;BME280;69117;47.148;18.954;2023-10-09T01:13:36;101629.28;;;8.97;100.00
79645;BME280;69117;47.148;18.954;2023-10-09T01:16:54;101626.84;;;8.94;100.00
79645;BME280;69117;47.148;18.954;2023-10-09T01:19:56;101627.81;;;8.93;100.00
79645;BME280;69117;47.148;18.954;2023-10-09T01:23:01;101629.56;;;8.92;100.00
79645;BME280;69117;47.148;18.954;2023-10-09T01:26:02;101622.28;;;8.83;100.00
79645;BME280;69117;47.148;18.954;2023-10-09T01:29:07;101616.06;;;8.71;100.00
79645;BME280;69117;47.148;18.954;2023-10-09T01:32:21;101618.28;;;8.78;100.00
79645;BME280;69117;47.148;18.954;2023-10-09T01:35:23;101618.13;;;8.66;100.00
79645;BME280;69117;47.148;18.954;2023-10-09T01:38:25;101616.69;;;8.75;100.00
79645;BME280;69117;47.148;18.954;2023-10-09T01:41:54;101626.41;;;8.87;100.00
79645;BME280;69117;47.148;18.954;2023-10-09T01:45:01;101630.66;;;8.90;100.00
79645;BME280;69117;47.148;18.954;2023-10-09T01:48:31;101641.69;;;8.82;100.00
79645;BME280;69117;47.148;18.954;2023-10-09T01:51:39;101633.13;;;8.79;100.00
79645;BME280;69117;47.148;18.954;2023-10-09T01:54:42;101626.63;;;8.84;100.00
79645;BME280;69117;47.148;18.954;2023-10-09T01:57:48;101612.28;;;8.88;100.00
79645;BME280;69117;47.148;18.954;2023-10-09T02:00:50;101636.84;;;8.89;100.00
79645;BME280;69117;47.148;18.954;2023-10-09T02:04:03;101647.59;;;8.86;100.00
79645;BME280;69117;47.148;18.954;2023-10-09T02:07:12;101656.53;;;8.83;100.00
79645;BME280;69117;47.148;18.954;2023-10-09T02:10:14;101681.22;;;8.82;100.00
79645;BME280;69117;47.148;18.954;2023-10-09T02:13:31;101665.16;;;8.73;100.00
79645;BME280;69117;47.148;18.954;2023-10-09T02:16:35;101657.66;;;8.66;100.00
79645;BME280;69117;47.148;18.954;2023-10-09T02:19:44;101663.28;;;8.75;100.00
79645;BME280;69117;47.148;18.954;2023-10-09T02:22:51;101656.72;;;8.80;100.00
79645;BME280;69117;47.148;18.954;2023-10-09T02:25:58;101637.34;;;8.68;100.00
79645;BME280;69117;47.148;18.954;2023-10-09T02:29:02;101634.38;;;8.73;100.00
79645;BME280;69117;47.148;18.954;2023-10-09T02:32:20;101626.00;;;8.81;100.00
79645;BME280;69117;47.148;18.954;2023-10-09T02:35:27;101627.66;;;8.82;100.00
79645;BME280;69117;47.148;18.954;2023-10-09T02:38:39;101616.69;;;8.75;100.00
79645;BME280;69117;47.148;18.954;2023-10-09T02:41:43;101630.50;;;8.79;100.00
79645;BME280;69117;47.148;18.954;2023-10-09T02:44:51;101643.75;;;8.77;100.00
79645;BME280;69117;47.148;18.954;2023-10-09T02:47:53;101630.19;;;8.83;100.00
79645;BME280;69117;47.148;18.954;2023-10-09T02:50:57;101597.00;;;8.81;100.00
79645;BME280;69117;47.148;18.954;2023-10-09T02:54:02;101599.88;;;8.90;100.00
79645;BME280;69117;47.148;18.954;2023-10-09T02:57:20;101597.31;;;8.89;100.00
79645;BME280;69117;47.148;18.954;2023-10-09T03:00:26;101611.59;;;8.99;100.00
79645;BME280;69117;47.148;18.954;2023-10-09T03:03:32;101598.91;;;8.91;100.00
79645;BME280;69117;47.148;18.954;2023-10-09T03:06:37;101598.63;;;8.96;100.00
79645;BME280;69117;47.148;18.954;2023-10-09T03:09:51;101606.19;;;9.01;100.00
79645;BME280;69117;47.148;18.954;2023-10-09T03:12:53;101606.75;;;9.06;100.00
79645;BME280;69117;47.148;18.954;2023-10-09T03:15:54;101605.28;;;9.14;100.00
79645;BME280;69117;47.148;18.954;2023-10-09T03:18:56;101610.22;;;9.19;100.00
79645;BME280;69117;47.148;18.954;2023-10-09T03:21:58;101606.88;;;9.30;100.00
79645;BME280;69117;47.148;18.954;2023-10-09T03:25:00;101589.66;;;9.24;100.00
79645;BME280;69117;47.148;18.954;2023-10-09T03:28:02;101587.25;;;9.21;100.00
79645;BME280;69117;47.148;18.954;2023-10-09T03:31:03;101578.38;;;9.22;100.00
79645;BME280;69117;47.148;18.954;2023-10-09T03:34:07;101568.88;;;9.20;100.00
79645;BME280;69117;47.148;18.954;2023-10-09T03:37:12;101564.97;;;9.25;100.00
79645;BME280;69117;47.148;18.954;2023-10-09T03:40:24;101567.94;;;9.33;100.00
79645;BME280;69117;47.148;18.954;2023-10-09T03:43:26;101548.72;;;9.31;100.00
79645;BME280;69117;47.148;18.954;2023-10-09T03:46:33;101554.25;;;9.41;100.00
79645;BME280;69117;47.148;18.954;2023-10-09T03:49:35;101547.03;;;9.43;100.00
79645;BME280;69117;47.148;18.954;2023-10-09T03:52:40;101547.56;;;9.48;100.00
79645;BME280;69117;47.148;18.954;2023-10-09T03:55:42;101555.47;;;9.48;100.00
79645;BME280;69117;47.148;18.954;2023-10-09T03:58:45;101554.94;;;9.43;100.00
79645;BME280;69117;47.148;18.954;2023-10-09T04:01:47;101563.63;;;9.45;100.00
79645;BME280;69117;47.148;18.954;2023-10-09T04:04:52;101563.63;;;9.45;100.00
79645;BME280;69117;47.148;18.954;2023-10-09T04:07:54;101544.63;;;9.40;100.00
79645;BME280;69117;47.148;18.954;2023-10-09T04:10:59;101551.16;;;9.47;100.00
79645;BME280;69117;47.148;18.954;2023-10-09T04:14:05;101543.56;;;9.43;100.00
79645;BME280;69117;47.148;18.954;2023-10-09T04:17:13;101549.78;;;9.54;100.00
79645;BME280;69117;47.148;18.954;2023-10-09T04:20:36;101551.22;;;9.58;100.00
79645;BME280;69117;47.148;18.954;2023-10-09T04:24:12;101545.03;;;9.59;100.00
79645;BME280;69117;47.148;18.954;2023-10-09T04:27:14;101550.38;;;9.71;100.00
79645;BME280;69117;47.148;18.954;2023-10-09T04:30:19;101541.75;;;9.69;100.00
79645;BME280;69117;47.148;18.954;2023-10-09T04:33:21;101540.78;;;9.70;100.00
79645;BME280;69117;47.148;18.954;2023-10-09T04:36:35;101526.53;;;9.72;100.00
79645;BME280;69117;47.148;18.954;2023-10-09T04:39:48;101523.03;;;9.72;100.00
79645;BME280;69117;47.148;18.954;2023-10-09T04:42:50;101533.38;;;9.75;100.00
79645;BME280;69117;47.148;18.954;2023-10-09T04:46:01;101526.75;;;9.69;100.00
79645;BME280;69117;47.148;18.954;2023-10-09T04:49:14;101525.16;;;9.67;100.00
79645;BME280;69117;47.148;18.954;2023-10-09T04:52:29;101512.16;;;9.76;100.00
79645;BME280;69117;47.148;18.954;2023-10-09T04:55:31;101508.56;;;9.77;100.00
79645;BME280;69117;47.148;18.954;2023-10-09T04:58:40;101496.44;;;9.75;100.00
79645;BME280;69117;47.148;18.954;2023-10-09T05:01:42;101507.84;;;9.75;100.00
79645;BME280;69117;47.148;18.954;2023-10-09T05:04:58;101497.38;;;9.74;100.00
79645;BME280;69117;47.148;18.954;2023-10-09T05:08:18;101501.50;;;9.78;100.00
79645;BME280;69117;47.148;18.954;2023-10-09T05:11:23;101500.00;;;9.74;100.00
79645;BME280;69117;47.148;18.954;2023-10-09T05:14:43;101495.03;;;9.82;100.00
79645;BME280;69117;47.148;18.954;2023-10-09T05:18:05;101483.72;;;9.80;100.00
79645;BME280;69117;47.148;18.954;2023-10-09T05:21:11;101479.25;;;9.93;100.00
79645;BME280;69117;47.148;18.954;2023-10-09T05:24:32;101461.34;;;9.85;100.00
79645;BME280;69117;47.148;18.954;2023-10-09T05:27:45;101484.78;;;9.90;100.00
79645;BME280;69117;47.148;18.954;2023-10-09T05:30:52;101465.47;;;9.90;100.00
79645;BME280;69117;47.148;18.954;2023-10-09T05:34:07;101471.00;;;9.98;100.00
79645;BME280;69117;47.148;18.954;2023-10-09T05:37:09;101480.16;;;10.05;100.00
79645;BME280;69117;47.148;18.954;2023-10-09T05:40:26;101482.56;;;10.08;100.00
79645;BME280;69117;47.148;18.954;2023-10-09T05:43:32;101475.94;;;10.02;100.00
79645;BME280;69117;47.148;18.954;2023-10-09T05:46:53;101490.16;;;10.13;100.00
79645;BME280;69117;47.148;18.954;2023-10-09T05:50:13;101478.59;;;10.02;100.00
79645;BME280;69117;47.148;18.954;2023-10-09T05:53:15;101478.22;;;10.07;100.00
79645;BME280;69117;47.148;18.954;2023-10-09T05:56:39;101481.72;;;10.07;100.00
79645;BME280;69117;47.148;18.954;2023-10-09T05:59:59;101491.72;;;10.15;100.00
79645;BME280;69117;47.148;18.954;2023-10-09T06:03:19;101499.31;;;10.20;100.00
79645;BME280;69117;47.148;18.954;2023-10-09T06:06:21;101507.66;;;10.26;100.00
79645;BME280;69117;47.148;18.954;2023-10-09T06:09:36;101511.88;;;10.29;100.00
79645;BME280;69117;47.148;18.954;2023-10-09T06:12:59;101504.25;;;10.24;95.43
79645;BME280;69117;47.148;18.954;2023-10-09T06:16:06;101494.94;;;10.31;97.09
79645;BME280;69117;47.148;18.954;2023-10-09T06:19:21;101481.03;;;10.41;90.45
79645;BME280;69117;47.148;18.954;2023-10-09T06:22:29;101460.06;;;10.50;90.86
79645;BME280;69117;47.148;18.954;2023-10-09T06:25:49;101465.53;;;10.71;90.26
79645;BME280;69117;47.148;18.954;2023-10-09T06:28:53;101471.63;;;10.83;90.26
79645;BME280;69117;47.148;18.954;2023-10-09T06:32:13;101464.81;;;10.81;88.55
79645;BME280;69117;47.148;18.954;2023-10-09T06:35:20;101461.44;;;10.78;83.62
79645;BME280;69117;47.148;18.954;2023-10-09T06:38:48;101456.75;;;10.93;85.85
79645;BME280;69117;47.148;18.954;2023-10-09T06:42:16;101446.44;;;10.90;79.86
79645;BME280;69117;47.148;18.954;2023-10-09T06:45:38;101452.56;;;10.91;79.43
79645;BME280;69117;47.148;18.954;2023-10-09T06:48:46;101460.97;;;10.85;79.30
79645;BME280;69117;47.148;18.954;2023-10-09T06:51:58;101463.03;;;10.92;77.37
79645;BME280;69117;47.148;18.954;2023-10-09T06:55:15;101465.28;;;10.74;77.35
79645;BME280;69117;47.148;18.954;2023-10-09T06:58:34;101455.19;;;10.80;79.60
79645;BME280;69117;47.148;18.954;2023-10-09T07:01:49;101462.38;;;10.89;83.44
79645;BME280;69117;47.148;18.954;2023-10-09T07:05:09;101466.50;;;10.93;80.22
79645;BME280;69117;47.148;18.954;2023-10-09T07:08:14;101458.22;;;11.09;82.92
79645;BME280;69117;47.148;18.954;2023-10-09T07:11:42;101463.25;;;11.12;81.61
79645;BME280;69117;47.148;18.954;2023-10-09T07:14:44;101448.59;;;10.96;74.14
79645;BME280;69117;47.148;18.954;2023-10-09T07:17:46;101438.38;;;11.26;79.25
79645;BME280;69117;47.148;18.954;2023-10-09T07:20:48;101434.38;;;11.31;75.73
79645;BME280;69117;47.148;18.954;2023-10-09T07:24:00;101417.75;;;11.40;76.88
79645;BME280;69117;47.148;18.954;2023-10-09T07:27:19;101414.41;;;11.38;74.66
79645;BME280;69117;47.148;18.954;2023-10-09T07:30:41;101409.00;;;11.40;77.44
79645;BME280;69117;47.148;18.954;2023-10-09T07:33:43;101406.97;;;11.32;75.60
79645;BME280;69117;47.148;18.954;2023-10-09T07:36:58;101402.88;;;11.39;74.44
79645;BME280;69117;47.148;18.954;2023-10-09T07:40:05;101408.13;;;11.51;74.77
79645;BME280;69117;47.148;18.954;2023-10-09T07:43:08;101398.63;;;11.59;71.06
79645;BME280;69117;47.148;18.954;2023-10-09T07:46:18;101397.53;;;11.83;69.38
79645;BME280;69117;47.148;18.954;2023-10-09T07:49:34;101398.13;;;11.98;67.37
79645;BME280;69117;47.148;18.954;2023-10-09T07:52:39;101386.06;;;12.05;69.83
79645;BME280;69117;47.148;18.954;2023-10-09T07:55:46;101372.22;;;12.22;69.77
79645;BME280;69117;47.148;18.954;2023-10-09T07:58:59;101362.78;;;12.50;67.88
79645;BME280;69117;47.148;18.954;2023-10-09T08:02:01;101353.81;;;12.42;63.13
79645;BME280;69117;47.148;18.954;2023-10-09T08:05:07;101340.47;;;12.53;61.87
79645;BME280;69117;47.148;18.954;2023-10-09T08:08:19;101337.63;;;12.75;65.13
79645;BME280;69117;47.148;18.954;2023-10-09T08:14:42;101303.13;;;13.64;60.28
79645;BME280;69117;47.148;18.954;2023-10-09T08:17:57;101296.56;;;13.49;55.72
79645;BME280;69117;47.148;18.954;2023-10-09T08:21:05;101312.66;;;13.47;56.52
79645;BME280;69117;47.148;18.954;2023-10-09T08:24:07;101301.03;;;13.78;55.58
79645;BME280;69117;47.148;18.954;2023-10-09T08:27:30;101297.38;;;13.98;52.70
79645;BME280;69117;47.148;18.954;2023-10-09T08:30:32;101285.66;;;13.81;52.10
79645;BME280;69117;47.148;18.954;2023-10-09T08:33:51;101293.03;;;13.97;52.87
79645;BME280;69117;47.148;18.954;2023-10-09T08:37:02;101286.72;;;14.45;55.12
79645;BME280;69117;47.148;18.954;2023-10-09T08:40:04;101260.06;;;14.27;49.78
79645;BME280;69117;47.148;18.954;2023-10-09T08:46:12;101247.13;;;14.42;48.88
79645;BME280;69117;47.148;18.954;2023-10-09T08:49:21;101254.00;;;14.44;53.11
79645;BME280;69117;47.148;18.954;2023-10-09T08:52:23;101247.50;;;14.84;51.34
79645;BME280;69117;47.148;18.954;2023-10-09T08:55:26;101242.94;;;15.12;50.18
79645;BME280;69117;47.148;18.954;2023-10-09T08:58:28;101239.44;;;14.94;50.92
79645;BME280;69117;47.148;18.954;2023-10-09T09:01:38;101233.81;;;14.52;49.37
79645;BME280;69117;47.148;18.954;2023-10-09T09:04:41;101238.56;;;14.48;48.82
79645;BME280;69117;47.148;18.954;2023-10-09T09:07:44;101230.66;;;14.66;50.52
79645;BME280;69117;47.148;18.954;2023-10-09T09:10:45;101237.25;;;14.89;49.47
79645;BME280;69117;47.148;18.954;2023-10-09T09:14:03;101236.03;;;14.84;52.15
79645;BME280;69117;47.148;18.954;2023-10-09T09:17:08;101233.53;;;15.18;50.71
79645;BME280;69117;47.148;18.954;2023-10-09T09:20:24;101231.50;;;15.74;50.07
79645;BME280;69117;47.148;18.954;2023-10-09T09:23:28;101224.00;;;16.03;51.93
79645;BME280;69117;47.148;18.954;2023-10-09T09:26:38;101217.34;;;15.73;49.66
79645;BME280;69117;47.148;18.954;2023-10-09T09:29:47;101203.28;;;15.89;50.67
79645;BME280;69117;47.148;18.954;2023-10-09T09:32:54;101203.19;;;15.55;51.86
79645;BME280;69117;47.148;18.954;2023-10-09T09:36:14;101198.78;;;15.46;50.19
79645;BME280;69117;47.148;18.954;2023-10-09T09:39:16;101187.75;;;15.76;51.61
79645;BME280;69117;47.148;18.954;2023-10-09T09:42:21;101188.88;;;15.12;51.68
79645;BME280;69117;47.148;18.954;2023-10-09T09:45:26;101186.22;;;15.74;53.82
79645;BME280;69117;47.148;18.954;2023-10-09T09:48:29;101186.66;;;15.69;53.65
79645;BME280;69117;47.148;18.954;2023-10-09T09:51:34;101198.72;;;16.08;51.67
79645;BME280;69117;47.148;18.954;2023-10-09T09:54:39;101184.22;;;15.58;50.56
79645;BME280;69117;47.148;18.954;2023-10-09T09:57:41;101183.50;;;15.48;49.48
79645;BME280;69117;47.148;18.954;2023-10-09T10:01:00;101184.97;;;15.42;48.40
79645;BME280;69117;47.148;18.954;2023-10-09T10:04:09;101196.09;;;16.16;50.69
79645;BME280;69117;47.148;18.954;2023-10-09T10:07:15;101179.50;;;15.70;48.84
79645;BME280;69117;47.148;18.954;2023-10-09T10:10:34;101154.69;;;14.99;48.16
79645;BME280;69117;47.148;18.954;2023-10-09T10:13:56;101146.16;;;15.40;53.74
79645;BME280;69117;47.148;18.954;2023-10-09T10:17:07;101127.13;;;15.52;49.96
79645;BME280;69117;47.148;18.954;2023-10-09T10:20:19;101113.66;;;15.88;48.56
79645;BME280;69117;47.148;18.954;2023-10-09T10:23:21;101119.63;;;16.24;54.05
79645;BME280;69117;47.148;18.954;2023-10-09T10:26:27;101121.19;;;15.93;50.19
79645;BME280;69117;47.148;18.954;2023-10-09T10:29:29;101111.53;;;16.67;49.70
79645;BME280;69117;47.148;18.954;2023-10-09T10:33:02;101100.97;;;16.33;50.04
79645;BME280;69117;47.148;18.954;2023-10-09T10:36:18;101091.66;;;16.29;50.76
79645;BME280;69117;47.148;18.954;2023-10-09T10:39:26;101074.69;;;16.46;51.71
79645;BME280;69117;47.148;18.954;2023-10-09T10:42:47;101078.38;;;15.86;48.50
79645;BME280;69117;47.148;18.954;2023-10-09T10:46:09;101062.88;;;15.90;48.53
79645;BME280;69117;47.148;18.954;2023-10-09T10:49:17;101058.19;;;16.59;53.38
79645;BME280;69117;47.148;18.954;2023-10-09T10:52:27;101070.66;;;17.15;50.08
79645;BME280;69117;47.148;18.954;2023-10-09T10:56:01;101072.72;;;16.81;47.03
79645;BME280;69117;47.148;18.954;2023-10-09T10:59:15;101042.69;;;16.95;47.24
79645;BME280;69117;47.148;18.954;2023-10-09T11:02:24;101029.81;;;16.99;49.61
79645;BME280;69117;47.148;18.954;2023-10-09T11:05:29;101027.78;;;17.25;47.70
79645;BME280;69117;47.148;18.954;2023-10-09T11:08:46;101030.28;;;17.66;48.65
79645;BME280;69117;47.148;18.954;2023-10-09T11:12:04;101033.97;;;18.50;44.71
79645;BME280;69117;47.148;18.954;2023-10-09T11:15:38;101027.25;;;17.69;43.15
79645;BME280;69117;47.148;18.954;2023-10-09T11:18:46;101008.88;;;17.74;44.63
79645;BME280;69117;47.148;18.954;2023-10-09T11:21:50;100965.69;;;19.37;43.97
79645;BME280;69117;47.148;18.954;2023-10-09T11:24:59;100990.44;;;20.76;39.96
79645;BME280;69117;47.148;18.954;2023-10-09T11:28:21;100982.91;;;21.34;38.54
79645;BME280;69117;47.148;18.954;2023-10-09T11:35:13;100963.38;;;21.54;37.68
79645;BME280;69117;47.148;18.954;2023-10-09T11:38:35;100951.75;;;19.63;39.62
79645;BME280;69117;47.148;18.954;2023-10-09T11:41:40;100965.00;;;19.50;42.16
79645;BME280;69117;47.148;18.954;2023-10-09T11:44:45;100953.00;;;19.45;44.39
79645;BME280;69117;47.148;18.954;2023-10-09T11:47:58;100970.66;;;18.81;45.06
79645;BME280;69117;47.148;18.954;2023-10-09T11:51:04;100964.50;;;18.19;51.09
79645;BME280;69117;47.148;18.954;2023-10-09T11:54:05;100986.88;;;18.41;49.56
79645;BME280;69117;47.148;18.954;2023-10-09T11:57:10;100985.25;;;19.67;46.33
79645;BME280;69117;47.148;18.954;2023-10-09T12:00:12;101001.78;;;19.71;43.85
79645;BME280;69117;47.148;18.954;2023-10-09T12:03:31;100990.09;;;21.27;43.17
79645;BME280;69117;47.148;18.954;2023-10-09T12:06:34;100991.47;;;22.12;38.75
79645;BME280;69117;47.148;18.954;2023-10-09T12:09:40;100994.28;;;20.67;40.00
79645;BME280;69117;47.148;18.954;2023-10-09T12:12:42;100996.69;;;21.59;39.44
79645;BME280;69117;47.148;18.954;2023-10-09T12:15:51;100997.53;;;22.74;38.92
79645;BME280;69117;47.148;18.954;2023-10-09T12:18:57;100986.97;;;23.58;36.70
79645;BME280;69117;47.148;18.954;2023-10-09T12:22:02;100975.44;;;23.37;36.00
79645;BME280;69117;47.148;18.954;2023-10-09T12:25:07;100946.81;;;23.29;37.25
79645;BME280;69117;47.148;18.954;2023-10-09T12:28:11;100913.44;;;23.30;36.74
79645;BME280;69117;47.148;18.954;2023-10-09T12:31:16;100919.13;;;23.09;38.42
79645;BME280;69117;47.148;18.954;2023-10-09T12:34:22;100935.38;;;22.56;39.47
79645;BME280;69117;47.148;18.954;2023-10-09T12:37:28;100919.00;;;21.91;42.17
79645;BME280;69117;47.148;18.954;2023-10-09T12:40:32;100921.47;;;21.86;41.65
79645;BME280;69117;47.148;18.954;2023-10-09T12:43:35;100912.59;;;22.58;43.40
79645;BME280;69117;47.148;18.954;2023-10-09T12:46:39;100889.00;;;23.19;38.82
79645;BME280;69117;47.148;18.954;2023-10-09T12:49:41;100904.09;;;23.26;38.65
79645;BME280;69117;47.148;18.954;2023-10-09T12:52:43;100928.13;;;21.35;43.79
79645;BME280;69117;47.148;18.954;2023-10-09T12:55:45;100914.38;;;20.47;48.54
79645;BME280;69117;47.148;18.954;2023-10-09T12:58:46;100914.53;;;20.61;50.53
79645;BME280;69117;47.148;18.954;2023-10-09T13:01:55;100879.16;;;20.29;50.11
79645;BME280;69117;47.148;18.954;2023-10-09T13:05:00;100884.34;;;20.30;51.73
79645;BME280;69117;47.148;18.954;2023-10-09T13:08:02;100874.63;;;19.80;50.92
79645;BME280;69117;47.148;18.954;2023-10-09T13:11:05;100878.13;;;19.80;54.12
79645;BME280;69117;47.148;18.954;2023-10-09T13:14:18;100876.97;;;19.68;58.04
79645;BME280;69117;47.148;18.954;2023-10-09T13:17:23;100850.06;;;20.04;53.00
79645;BME280;69117;47.148;18.954;2023-10-09T13:20:28;100853.88;;;19.88;55.26
79645;BME280;69117;47.148;18.954;2023-10-09T13:23:33;100867.34;;;19.74;56.34
79645;BME280;69117;47.148;18.954;2023-10-09T13:26:44;100867.88;;;19.11;59.55
79645;BME280;69117;47.148;18.954;2023-10-09T13:29:48;100862.38;;;18.83;62.46
79645;BME280;69117;47.148;18.954;2023-10-09T13:32:50;100883.78;;;18.30;62.59
79645;BME280;69117;47.148;18.954;2023-10-09T13:35:52;100881.66;;;18.11;70.01
79645;BME280;69117;47.148;18.954;2023-10-09T13:38:54;100881.84;;;18.10;62.98
79645;BME280;69117;47.148;18.954;2023-10-09T13:41:57;100871.63;;;17.67;66.67
79645;BME280;69117;47.148;18.954;2023-10-09T13:45:04;100886.78;;;17.67;73.75
79645;BME280;69117;47.148;18.954;2023-10-09T13:48:08;100892.03;;;17.60;75.25
79645;BME280;69117;47.148;18.954;2023-10-09T13:51:13;100892.38;;;17.57;79.40
79645;BME280;69117;47.148;18.954;2023-10-09T13:54:26;100887.78;;;17.74;74.22
79645;BME280;69117;47.148;18.954;2023-10-09T13:57:34;100879.75;;;17.74;78.06
79645;BME280;69117;47.148;18.954;2023-10-09T14:00:36;100860.25;;;17.65;74.27
79645;BME280;69117;47.148;18.954;2023-10-09T14:03:45;100845.22;;;17.41;79.16
79645;BME280;69117;47.148;18.954;2023-10-09T14:06:52;100836.97;;;17.51;79.21
79645;BME280;69117;47.148;18.954;2023-10-09T14:10:01;100831.13;;;17.55;82.67
79645;BME280;69117;47.148;18.954;2023-10-09T14:13:31;100852.53;;;17.47;82.23
79645;BME280;69117;47.148;18.954;2023-10-09T14:16:34;100856.63;;;17.35;85.12
79645;BME280;69117;47.148;18.954;2023-10-09T14:19:38;100853.88;;;17.20;84.87
79645;BME280;69117;47.148;18.954;2023-10-09T14:22:40;100839.03;;;17.17;86.93
79645;BME280;69117;47.148;18.954;2023-10-09T14:25:42;100856.69;;;17.18;86.27
79645;BME280;69117;47.148;18.954;2023-10-09T14:28:45;100854.22;;;17.17;85.80
79645;BME280;69117;47.148;18.954;2023-10-09T14:31:47;100846.44;;;17.30;84.21
79645;BME280;69117;47.148;18.954;2023-10-09T14:35:01;100861.44;;;17.08;89.06
79645;BME280;69117;47.148;18.954;2023-10-09T14:38:03;100875.38;;;16.87;92.73
79645;BME280;69117;47.148;18.954;2023-10-09T14:41:12;100880.91;;;16.86;86.62
79645;BME280;69117;47.148;18.954;2023-10-09T14:44:14;100878.06;;;16.79;88.87
79645;BME280;69117;47.148;18.954;2023-10-09T14:47:18;100879.25;;;16.77;89.95
79645;BME280;69117;47.148;18.954;2023-10-09T14:50:21;100872.88;;;16.69;91.89
79645;BME280;69117;47.148;18.954;2023-10-09T14:53:25;100858.44;;;16.56;92.04
79645;BME280;69117;47.148;18.954;2023-10-09T14:56:28;100875.47;;;16.38;100.00
79645;BME280;69117;47.148;18.954;2023-10-09T14:59:30;100870.19;;;15.81;100.00
79645;BME280;69117;47.148;18.954;2023-10-09T15:02:32;100875.94;;;15.44;100.00
79645;BME280;69117;47.148;18.954;2023-10-09T15:05:34;100865.38;;;15.18;100.00
79645;BME280;69117;47.148;18.954;2023-10-09T15:08:36;100869.50;;;15.12;100.00
79645;BME280;69117;47.148;18.954;2023-10-09T15:11:38;100871.97;;;15.05;100.00
79645;BME280;69117;47.148;18.954;2023-10-09T15:14:40;100862.84;;;15.08;100.00
79645;BME280;69117;47.148;18.954;2023-10-09T15:17:42;100843.69;;;14.96;100.00
79645;BME280;69117;47.148;18.954;2023-10-09T15:20:50;100855.28;;;14.87;100.00
79645;BME280;69117;47.148;18.954;2023-10-09T15:23:54;100845.22;;;14.64;100.00
79645;BME280;69117;47.148;18.954;2023-10-09T15:26:56;100834.34;;;14.58;100.00
79645;BME280;69117;47.148;18.954;2023-10-09T15:30:01;100828.44;;;14.46;100.00
79645;BME280;69117;47.148;18.954;2023-10-09T15:33:04;100832.34;;;14.34;100.00
79645;BME280;69117;47.148;18.954;2023-10-09T15:36:16;100851.28;;;14.31;100.00
79645;BME280;69117;47.148;18.954;2023-10-09T15:39:21;100848.28;;;14.26;100.00
79645;BME280;69117;47.148;18.954;2023-10-09T15:42:25;100837.72;;;14.16;100.00
79645;BME280;69117;47.148;18.954;2023-10-09T15:45:27;100840.88;;;14.11;100.00
79645;BME280;69117;47.148;18.954;2023-10-09T15:48:31;100845.69;;;14.16;100.00
79645;BME280;69117;47.148;18.954;2023-10-09T15:51:34;100839.88;;;14.12;100.00
79645;BME280;69117;47.148;18.954;2023-10-09T15:54:36;100841.59;;;14.21;100.00
79645;BME280;69117;47.148;18.954;2023-10-09T15:57:39;100829.09;;;14.14;100.00
79645;BME280;69117;47.148;18.954;2023-10-09T16:00:46;100816.56;;;14.06;100.00
79645;BME280;69117;47.148;18.954;2023-10-09T16:03:48;100826.69;;;14.03;100.00
79645;BME280;69117;47.148;18.954;2023-10-09T16:06:49;100827.00;;;14.00;100.00
79645;BME280;69117;47.148;18.954;2023-10-09T16:09:54;100825.47;;;13.97;100.00
79645;BME280;69117;47.148;18.954;2023-10-09T16:12:57;100831.47;;;13.99;100.00
79645;BME280;69117;47.148;18.954;2023-10-09T16:16:01;100826.78;;;13.93;100.00
79645;BME280;69117;47.148;18.954;2023-10-09T16:19:03;100822.16;;;13.95;100.00